createdAt,value
2019-02-23T00:04:28.173Z,16.43
2019-02-23T00:09:20.063Z,16.00
2019-02-23T00:14:09.943Z,15.90
2019-02-23T00:23:13.274Z,16.30
2019-02-23T00:28:03.220Z,14.80
2019-02-23T00:32:53.074Z,13.97
2019-02-23T00:37:43.013Z,13.33
2019-02-23T00:42:32.873Z,12.23
2019-02-23T00:47:22.801Z,12.50
2019-02-23T00:52:12.571Z,12.03
2019-02-23T00:57:02.433Z,11.70
2019-02-23T01:01:52.272Z,12.20
2019-02-23T01:06:42.137Z,11.23
2019-02-23T01:11:31.988Z,11.73
2019-02-23T01:16:21.832Z,11.40
2019-02-23T01:21:11.688Z,10.23
2019-02-23T01:26:01.544Z,11.30
2019-02-23T01:30:51.388Z,11.27
2019-02-23T01:35:41.240Z,11.30
2019-02-23T01:40:31.206Z,10.83
2019-02-23T01:45:21.135Z,10.37
2019-02-23T01:50:11.100Z,10.93
2019-02-23T01:55:01.017Z,10.83
2019-02-23T01:59:50.857Z,10.80
2019-02-23T02:04:40.711Z,10.50
2019-02-23T02:09:33.940Z,10.90
2019-02-23T02:14:24.428Z,10.97
2019-02-23T02:19:14.256Z,12.17
2019-02-23T02:24:04.148Z,11.67
2019-02-23T02:28:54.003Z,10.87
2019-02-23T02:34:13.463Z,11.30
2019-02-23T02:39:07.124Z,11.40
2019-02-23T02:43:56.970Z,11.30
2019-02-23T02:48:46.820Z,11.43
2019-02-23T02:53:36.672Z,11.97
2019-02-23T02:58:26.520Z,11.90
2019-02-23T03:03:16.380Z,12.37
2019-02-23T03:08:06.238Z,12.43
2019-02-23T03:12:56.047Z,13.70
2019-02-23T03:17:46.011Z,12.77
2019-02-23T03:22:35.860Z,12.83
2019-02-23T03:27:25.714Z,13.27
2019-02-23T03:32:15.568Z,13.20
2019-02-23T03:37:05.404Z,12.37
2019-02-23T03:41:55.654Z,13.50
2019-02-23T03:46:45.525Z,13.13
2019-02-23T03:51:35.354Z,13.20
2019-02-23T03:56:25.205Z,13.53
2019-02-23T04:01:15.039Z,13.77
2019-02-23T04:06:04.903Z,14.77
2019-02-23T04:10:54.750Z,12.93
2019-02-23T04:15:44.608Z,13.53
2019-02-23T04:20:34.424Z,14.03
2019-02-23T04:25:24.303Z,14.60
2019-02-23T04:30:14.204Z,13.90
2019-02-23T04:35:04.120Z,14.47
2019-02-23T04:39:53.975Z,14.47
2019-02-23T04:44:43.816Z,14.17
2019-02-23T04:49:33.677Z,14.53
2019-02-23T04:54:23.512Z,14.33
2019-02-23T04:59:13.347Z,15.60
2019-02-23T05:04:03.188Z,15.83
2019-02-23T05:08:53.023Z,14.53
2019-02-23T05:13:42.973Z,14.87
2019-02-23T05:18:32.810Z,15.70
2019-02-23T05:23:22.817Z,13.93
2019-02-23T05:28:12.655Z,15.40
2019-02-23T05:33:02.521Z,14.80
2019-02-23T05:37:52.457Z,14.40
2019-02-23T05:42:42.305Z,14.00
2019-02-23T05:47:32.123Z,13.50
2019-02-23T05:52:21.967Z,14.00
2019-02-23T05:57:11.807Z,12.00
2019-02-23T06:02:01.664Z,12.57
2019-02-23T06:06:51.531Z,12.80
2019-02-23T06:11:41.384Z,13.57
2019-02-23T06:16:31.234Z,11.80
2019-02-23T06:21:21.097Z,12.27
2019-02-23T06:26:10.969Z,13.07
2019-02-23T06:31:00.818Z,12.40
2019-02-23T06:35:50.691Z,13.07
2019-02-23T06:40:40.703Z,12.77
2019-02-23T06:45:30.642Z,12.13
2019-02-23T06:50:20.479Z,12.03
2019-02-23T06:55:10.316Z,11.70
2019-02-23T07:00:00.141Z,12.43
2019-02-23T07:04:52.889Z,12.10
2019-02-23T07:09:42.752Z,12.23
2019-02-23T07:14:32.605Z,13.90
2019-02-23T07:19:22.461Z,11.90
2019-02-23T07:24:12.338Z,13.33
2019-02-23T07:29:02.180Z,13.23
2019-02-23T07:33:52.052Z,13.77
2019-02-23T07:38:41.919Z,12.33
2019-02-23T07:43:31.764Z,11.33
2019-02-23T07:48:21.627Z,11.10
2019-02-23T07:53:11.487Z,11.20
2019-02-23T07:58:01.358Z,10.97
2019-02-23T08:02:51.226Z,11.80
2019-02-23T08:07:41.125Z,10.97
2019-02-23T08:12:30.968Z,10.93
2019-02-23T08:17:20.921Z,10.87
2019-02-23T08:22:10.817Z,11.27
2019-02-23T08:27:00.735Z,11.40
2019-02-23T08:31:50.608Z,10.53
2019-02-23T08:36:40.453Z,10.93
2019-02-23T08:41:30.302Z,11.33
2019-02-23T08:46:20.173Z,11.10
2019-02-23T08:51:10.136Z,10.87
2019-02-23T08:55:59.969Z,10.70
2019-02-23T09:00:49.813Z,10.63
2019-02-23T09:05:40.031Z,11.20
2019-02-23T09:10:29.990Z,10.67
2019-02-23T09:15:22.289Z,10.93
2019-02-23T09:20:12.822Z,10.93
2019-02-23T09:25:05.224Z,10.33
2019-02-23T09:29:55.065Z,10.73
2019-02-23T09:34:45.009Z,11.03
2019-02-23T09:39:34.862Z,9.67
2019-02-23T09:44:24.694Z,9.43
2019-02-23T09:49:14.555Z,9.80
2019-02-23T09:54:04.529Z,9.43
2019-02-23T09:58:54.406Z,9.13
2019-02-23T10:03:44.255Z,10.07
2019-02-23T10:08:35.438Z,9.40
2019-02-23T10:13:25.309Z,9.07
2019-02-23T10:21:39.816Z,8.80
2019-02-23T10:26:33.731Z,8.90
2019-02-23T10:31:27.708Z,8.95
2019-02-23T10:36:22.171Z,8.43
2019-02-23T10:41:16.141Z,8.70
2019-02-23T10:46:10.183Z,8.30
2019-02-23T10:51:04.163Z,7.75
2019-02-23T10:55:58.039Z,8.18
2019-02-23T11:00:51.871Z,8.33
2019-02-23T11:05:45.813Z,7.65
2019-02-23T11:10:39.795Z,7.70
2019-02-23T11:15:33.787Z,7.87
2019-02-23T11:20:28.416Z,8.10
2019-02-23T11:25:24.248Z,7.10
2019-02-23T11:30:18.194Z,7.72
2019-02-23T11:35:16.998Z,7.08
2019-02-23T11:40:11.241Z,7.17
2019-02-23T11:45:06.921Z,6.62
2019-02-23T11:50:00.887Z,6.78
2019-02-23T11:54:54.741Z,7.45
2019-02-23T11:59:48.698Z,7.12
2019-02-23T12:04:42.611Z,7.05
2019-02-23T12:09:36.470Z,6.30
2019-02-23T12:14:30.341Z,6.55
2019-02-23T12:19:24.473Z,7.15
2019-02-23T12:24:18.510Z,7.33
2019-02-23T12:29:12.369Z,6.95
2019-02-23T12:34:06.339Z,6.22
2019-02-23T12:39:00.183Z,6.17
2019-02-23T12:43:54.064Z,6.08
2019-02-23T12:48:47.934Z,6.25
2019-02-23T12:53:41.785Z,7.15
2019-02-23T12:58:35.662Z,6.72
2019-02-23T13:03:29.550Z,6.90
2019-02-23T13:08:27.210Z,6.42
2019-02-23T13:13:34.038Z,6.60
2019-02-23T13:18:34.798Z,6.80
2019-02-23T13:23:35.271Z,5.92
2019-02-23T13:28:41.635Z,6.72
2019-02-23T13:34:12.884Z,6.87
2019-02-23T13:39:16.789Z,6.47
2019-02-23T13:44:30.799Z,5.92
2019-02-23T13:49:49.246Z,6.50
2019-02-23T13:55:17.815Z,5.45
2019-02-23T14:00:47.556Z,5.67
2019-02-23T14:05:45.248Z,6.00
2019-02-23T14:10:42.906Z,6.90
2019-02-23T14:15:46.782Z,5.92
2019-02-23T14:20:58.991Z,5.95
2019-02-23T14:26:08.863Z,6.10
2019-02-23T14:31:06.522Z,6.15
2019-02-23T14:36:09.826Z,6.00
2019-02-23T14:41:13.550Z,6.60
2019-02-23T14:46:27.856Z,6.20
2019-02-23T14:51:40.659Z,6.37
2019-02-23T14:56:57.604Z,6.47
2019-02-23T15:02:10.551Z,7.67
2019-02-23T15:07:17.266Z,7.58
2019-02-23T15:12:20.929Z,7.15
2019-02-23T15:17:24.415Z,6.28
2019-02-23T15:22:48.698Z,5.35
2019-02-23T15:27:49.175Z,5.62
2019-02-23T15:33:12.989Z,6.10
2019-02-23T15:38:19.890Z,5.70
2019-02-23T15:43:23.603Z,4.92
2019-02-23T15:48:30.445Z,5.03
2019-02-23T15:53:24.275Z,4.92
2019-02-23T15:58:18.534Z,4.53
2019-02-23T16:03:12.390Z,5.22
2019-02-23T16:08:06.250Z,5.12
2019-02-23T16:13:00.141Z,5.40
2019-02-23T16:17:54.070Z,5.28
2019-02-23T16:22:48.086Z,5.90
2019-02-23T16:27:41.970Z,6.00
2019-02-23T16:32:35.859Z,6.30
2019-02-23T16:37:29.717Z,7.83
2019-02-23T16:42:23.606Z,8.77
2019-02-23T16:47:17.566Z,8.73
2019-02-23T16:52:11.408Z,8.90
2019-02-23T16:57:05.268Z,9.07
2019-02-23T17:01:59.155Z,9.30
2019-02-23T17:06:53.009Z,10.73
2019-02-23T17:11:46.836Z,10.57
2019-02-23T17:16:40.688Z,20.37
2019-02-23T17:21:34.574Z,16.07
2019-02-23T17:26:28.508Z,10.90
2019-02-23T17:31:22.400Z,9.30
2019-02-23T17:36:16.660Z,20.37
2019-02-23T17:42:53.475Z,21.70
2019-02-23T17:46:07.336Z,21.00
2019-02-23T17:49:21.179Z,21.37
2019-02-23T17:52:35.041Z,29.23
2019-02-23T17:55:49.148Z,22.27
2019-02-23T17:59:03.133Z,16.00
2019-02-23T18:02:16.966Z,14.37
2019-02-23T18:05:30.936Z,13.57
2019-02-23T18:08:44.788Z,11.47
2019-02-23T18:11:58.674Z,11.63
2019-02-23T18:15:12.643Z,11.93
2019-02-23T18:18:26.530Z,13.23
2019-02-23T18:21:40.425Z,12.17
2019-02-23T18:24:54.561Z,11.30
2019-02-23T18:28:08.459Z,12.70
2019-02-23T18:31:22.369Z,11.80
2019-02-23T18:34:36.210Z,11.27
2019-02-23T18:37:50.181Z,13.03
2019-02-23T18:41:04.038Z,12.90
2019-02-23T18:44:21.183Z,12.10
2019-02-23T18:47:35.061Z,10.53
2019-02-23T18:50:54.034Z,10.10
2019-02-23T18:54:10.480Z,10.30
2019-02-23T18:57:24.327Z,10.00
2019-02-23T19:00:38.184Z,9.00
2019-02-23T19:03:52.066Z,9.23
2019-02-23T19:07:06.012Z,8.50
2019-02-23T19:10:19.852Z,9.10
2019-02-23T19:13:33.723Z,10.00
2019-02-23T19:16:47.621Z,9.90
2019-02-23T19:20:02.850Z,9.60
2019-02-23T19:23:16.698Z,9.50
2019-02-23T19:26:38.072Z,10.20
2019-02-23T19:29:46.594Z,9.97
2019-02-23T19:33:00.561Z,8.90
2019-02-23T19:36:14.495Z,9.13
2019-02-23T19:39:28.349Z,9.20
2019-02-23T19:42:42.214Z,9.60
2019-02-23T19:45:56.177Z,9.60
2019-02-23T19:49:10.057Z,9.93
2019-02-23T19:52:24.134Z,11.57
2019-02-23T19:55:37.999Z,10.23
2019-02-23T19:58:51.858Z,10.77
2019-02-23T20:02:05.704Z,12.10
2019-02-23T20:05:19.554Z,12.60
2019-02-23T20:08:33.428Z,12.70
2019-02-23T20:11:47.381Z,11.27
2019-02-23T20:15:01.500Z,10.00
2019-02-23T20:18:15.348Z,10.23
2019-02-23T20:21:29.440Z,10.43
2019-02-23T20:24:43.377Z,10.37
2019-02-23T20:27:57.218Z,9.90
2019-02-23T20:31:11.448Z,9.70
2019-02-23T20:34:25.368Z,10.00
2019-02-23T20:37:39.215Z,9.87
2019-02-23T20:40:53.238Z,10.53
2019-02-23T20:44:07.087Z,12.10
2019-02-23T20:47:21.049Z,11.50
2019-02-23T20:50:34.905Z,12.77
2019-02-23T20:53:48.754Z,11.50
2019-02-23T20:57:05.250Z,11.50
2019-02-23T21:00:19.128Z,11.83
2019-02-23T21:03:32.968Z,10.87
2019-02-23T21:06:48.883Z,10.70
2019-02-23T21:10:08.371Z,10.27
2019-02-23T21:13:22.223Z,9.93
2019-02-23T21:16:36.095Z,10.40
2019-02-23T21:19:50.028Z,10.00
2019-02-23T21:23:04.031Z,9.93
2019-02-23T21:26:18.040Z,10.40
2019-02-23T21:29:31.890Z,10.57
2019-02-23T21:32:45.776Z,10.10
2019-02-23T21:35:59.656Z,10.47
2019-02-23T21:39:13.499Z,10.97
2019-02-23T21:42:27.354Z,9.87
2019-02-23T21:45:41.221Z,10.50
2019-02-23T21:48:55.403Z,10.27
2019-02-23T21:52:09.282Z,10.03
2019-02-23T21:55:23.105Z,11.10
2019-02-23T21:58:36.985Z,10.33
2019-02-23T22:01:50.973Z,9.90
2019-02-23T22:05:11.922Z,10.90
2019-02-23T22:08:21.311Z,10.73
2019-02-23T22:11:35.128Z,10.47
2019-02-23T22:14:48.995Z,11.47
2019-02-23T22:18:02.980Z,10.43
2019-02-23T22:21:16.795Z,10.20
2019-02-23T22:24:30.685Z,11.37
2019-02-23T22:27:44.734Z,12.57
2019-02-23T22:30:58.575Z,14.17
2019-02-23T22:34:12.419Z,12.77
2019-02-23T22:37:26.253Z,12.90
2019-02-23T22:40:40.216Z,12.03
2019-02-23T22:43:54.115Z,11.10
2019-02-23T22:47:07.967Z,9.77
2019-02-23T22:50:21.947Z,10.10
2019-02-23T22:53:35.793Z,10.77
2019-02-23T22:56:49.619Z,10.23
2019-02-23T23:00:07.722Z,10.53
2019-02-23T23:03:22.182Z,10.17
2019-02-23T23:06:36.081Z,10.07
2019-02-23T23:09:50.067Z,10.90
2019-02-23T23:13:04.015Z,10.40
2019-02-23T23:16:17.871Z,10.70
2019-02-23T23:19:31.752Z,11.07
2019-02-23T23:22:45.690Z,10.80
2019-02-23T23:25:59.564Z,10.83
2019-02-23T23:29:13.537Z,11.10
2019-02-23T23:32:27.401Z,9.90
2019-02-23T23:35:41.263Z,10.10
2019-02-23T23:38:55.182Z,10.57
2019-02-23T23:42:09.128Z,10.10
2019-02-23T23:45:23.144Z,9.73
2019-02-23T23:48:37.085Z,9.40
2019-02-23T23:51:51.010Z,9.63
2019-02-23T23:55:05.176Z,9.60
2019-02-23T23:58:19.012Z,9.77
